Time;durP1;ratioP1;P1;durP2;ratioP2;P2;SDS_P1;SDS_P2;PMS_P1;PMS_P2;Temp;Humidity;BMP_temperature;BMP_pressure;BME280_temperature;BME280_humidity;BME280_pressure;Samples;Min_cycle;Max_cycle;Signal;HPM_P1;HPM_P2
2023/10/08 00:01:33;;;;;;;10.85;9.73;;;;;;;;;;5014498;28;20033;-75
2023/10/08 00:04:00;;;;;;;11.10;9.82;;;;;;;;;;5014180;28;20041;-75
2023/10/08 00:06:27;;;;;;;11.10;10.00;;;;;;;;;;5011551;28;20037;-75
2023/10/08 00:08:59;;;;;;;10.60;9.25;;;;;;;;;;5014136;28;20128;-78
2023/10/08 00:11:26;;;;;;;10.52;9.52;;;;;;;;;;5008019;28;20026;-75
2023/10/08 00:13:56;;;;;;;10.70;9.60;;;;;;;;;;5017660;28;20390;-78
2023/10/08 00:16:22;;;;;;;11.30;10.20;;;;;;;;;;5007188;28;20091;-79
2023/10/08 00:18:50;;;;;;;10.75;9.65;;;;;;;;;;5007591;28;20220;-77
2023/10/08 00:21:27;;;;;;;11.70;9.80;;;;;;;;;;5014347;28;20060;-75
2023/10/08 00:23:56;;;;;;;11.30;9.93;;;;;;;;;;5016345;28;20045;-78
2023/10/08 00:26:29;;;;;;;10.73;9.50;;;;;;;;;;5015093;28;20037;-75
2023/10/08 00:29:15;;;;;;;10.63;9.73;;;;;;;;;;5015005;28;20086;-75
2023/10/08 00:31:44;;;;;;;10.90;9.88;;;;;;;;;;5021590;28;20047;-75
2023/10/08 00:34:13;;;;;;;12.80;9.80;;;;;;;;;;5017950;28;20038;-76
2023/10/08 00:36:41;;;;;;;10.73;9.50;;;;;;;;;;5033756;28;20033;-74
2023/10/08 00:39:13;;;;;;;10.35;9.35;;;;;;;;;;5009715;28;20037;-76
2023/10/08 00:41:43;;;;;;;11.20;10.10;;;;;;;;;;5032592;28;20476;-77
2023/10/08 00:44:13;;;;;;;10.45;9.50;;;;;;;;;;5026502;28;20046;-76
2023/10/08 00:46:47;;;;;;;10.70;9.60;;;;;;;;;;5025469;28;20034;-77
2023/10/08 00:52:00;;;;;;;12.10;9.55;;;;;;;;;;5017175;28;20046;-75
2023/10/08 00:54:28;;;;;;;10.60;9.60;;;;;;;;;;5017977;28;20037;-75
2023/10/08 00:56:57;;;;;;;10.80;9.90;;;;;;;;;;5010854;28;20594;-75
2023/10/08 00:59:24;;;;;;;10.90;9.90;;;;;;;;;;5023201;28;20040;-75
2023/10/08 01:01:51;;;;;;;10.40;9.40;;;;;;;;;;5004762;28;20686;-76
2023/10/08 01:04:22;;;;;;;10.25;9.10;;;;;;;;;;5008382;28;20045;-77
2023/10/08 01:06:54;;;;;;;12.50;10.10;;;;;;;;;;5008575;28;20042;-75
2023/10/08 01:09:22;;;;;;;10.18;9.18;;;;;;;;;;5011088;28;20511;-75
2023/10/08 01:12:13;;;;;;;10.48;9.38;;;;;;;;;;5030557;28;20506;-75
2023/10/08 01:14:42;;;;;;;10.75;9.65;;;;;;;;;;5010944;28;20033;-75
2023/10/08 01:17:14;;;;;;;10.40;9.43;;;;;;;;;;5013304;28;20038;-76
2023/10/08 01:19:42;;;;;;;10.32;9.38;;;;;;;;;;5011110;28;20117;-78
2023/10/08 01:22:13;;;;;;;10.40;9.40;;;;;;;;;;5006192;28;20614;-76
2023/10/08 01:24:38;;;;;;;10.70;9.60;;;;;;;;;;5010883;28;20037;-75
2023/10/08 01:27:05;;;;;;;10.40;9.30;;;;;;;;;;5005381;28;20435;-75
2023/10/08 01:29:31;;;;;;;11.48;9.13;;;;;;;;;;5031272;28;20095;-77
2023/10/08 01:31:57;;;;;;;11.25;9.60;;;;;;;;;;5013111;28;20037;-77
2023/10/08 01:34:35;;;;;;;11.07;9.90;;;;;;;;;;5011676;28;20094;-76
2023/10/08 01:37:05;;;;;;;10.30;9.30;;;;;;;;;;5025592;28;20120;-76
2023/10/08 01:39:32;;;;;;;11.80;10.60;;;;;;;;;;5016598;28;20506;-75
2023/10/08 01:41:57;;;;;;;10.98;9.65;;;;;;;;;;5001118;28;20755;-76
2023/10/08 01:44:24;;;;;;;11.57;10.35;;;;;;;;;;5015012;28;20073;-76
2023/10/08 01:46:50;;;;;;;10.57;9.57;;;;;;;;;;5001537;28;20040;-75
2023/10/08 01:49:18;;;;;;;10.70;9.65;;;;;;;;;;5007789;28;20025;-78
2023/10/08 01:51:46;;;;;;;11.23;10.00;;;;;;;;;;5015187;28;20041;-76
2023/10/08 01:54:17;;;;;;;11.45;10.40;;;;;;;;;;5020443;28;20037;-76
2023/10/08 01:56:43;;;;;;;11.35;10.13;;;;;;;;;;5022512;28;20047;-74
2023/10/08 01:59:11;;;;;;;11.00;9.90;;;;;;;;;;5029611;28;20045;-75
2023/10/08 02:01:38;;;;;;;11.10;9.75;;;;;;;;;;5024366;28;20506;-75
2023/10/08 02:04:07;;;;;;;10.75;9.65;;;;;;;;;;5014592;28;20038;-75
2023/10/08 02:06:33;;;;;;;;;;;;;;;;;;5021907;28;20484;-76
2023/10/08 02:09:05;;;;;;;11.90;9.73;;;;;;;;;;5006375;28;19968;-75
2023/10/08 02:11:32;;;;;;;12.18;10.15;;;;;;;;;;5009564;28;20030;-77
2023/10/08 02:13:58;;;;;;;11.55;10.35;;;;;;;;;;5001927;28;20045;-76
2023/10/08 02:16:23;;;;;;;10.70;9.60;;;;;;;;;;5027384;28;20055;-78
2023/10/08 02:18:51;;;;;;;12.05;10.27;;;;;;;;;;5007052;28;20033;-78
2023/10/08 02:21:17;;;;;;;10.60;9.52;;;;;;;;;;5016735;28;20514;-76
2023/10/08 02:23:43;;;;;;;10.48;9.45;;;;;;;;;;5009620;28;20038;-77
2023/10/08 02:26:09;;;;;;;10.82;9.70;;;;;;;;;;5009049;28;20185;-77
2023/10/08 02:28:38;;;;;;;10.93;9.70;;;;;;;;;;5007139;28;20049;-79
2023/10/08 02:31:04;;;;;;;11.18;9.82;;;;;;;;;;5010759;28;20677;-76
2023/10/08 02:33:30;;;;;;;10.43;9.30;;;;;;;;;;5005792;28;20041;-76
2023/10/08 02:35:56;;;;;;;15.35;9.60;;;;;;;;;;5009752;28;20046;-77
2023/10/08 02:38:22;;;;;;;10.52;9.55;;;;;;;;;;5007615;28;20091;-76
2023/10/08 02:40:48;;;;;;;11.50;10.35;;;;;;;;;;5005976;28;20034;-79
2023/10/08 02:43:15;;;;;;;10.98;9.88;;;;;;;;;;5010897;28;20029;-76
2023/10/08 02:45:42;;;;;;;10.63;9.63;;;;;;;;;;5031690;28;20033;-77
2023/10/08 02:48:11;;;;;;;11.48;10.27;;;;;;;;;;5010099;28;20030;-76
2023/10/08 02:50:41;;;;;;;10.98;9.93;;;;;;;;;;5014124;28;20630;-77
2023/10/08 02:53:17;;;;;;;10.50;9.48;;;;;;;;;;5006834;28;20034;-78
2023/10/08 02:55:46;;;;;;;11.15;10.00;;;;;;;;;;5011540;28;20105;-76
2023/10/08 02:58:15;;;;;;;10.63;9.25;;;;;;;;;;5010233;28;20120;-76
2023/10/08 03:00:42;;;;;;;12.85;9.70;;;;;;;;;;5010915;28;20045;-76
2023/10/08 03:03:15;;;;;;;10.13;9.13;;;;;;;;;;5026454;28;20045;-77
2023/10/08 03:05:46;;;;;;;10.63;9.52;;;;;;;;;;5050315;28;20029;-78
2023/10/08 03:08:20;;;;;;;16.90;9.30;;;;;;;;;;5053962;28;20037;-79
2023/10/08 03:10:57;;;;;;;12.05;9.23;;;;;;;;;;5029390;28;20096;-76
2023/10/08 03:13:22;;;;;;;10.70;9.70;;;;;;;;;;5015559;28;20536;-77
2023/10/08 03:18:16;;;;;;;10.75;9.15;;;;;;;;;;5007029;28;20048;-75
2023/10/08 03:20:42;;;;;;;10.57;9.47;;;;;;;;;;5013922;28;20043;-75
2023/10/08 03:25:57;;;;;;;9.65;8.75;;;;;;;;;;5028385;28;20033;-75
2023/10/08 03:28:24;;;;;;;10.05;8.68;;;;;;;;;;5011264;28;20162;-77
2023/10/08 03:30:56;;;;;;;12.50;9.60;;;;;;;;;;5008590;28;20053;-76
2023/10/08 03:33:26;;;;;;;11.85;8.98;;;;;;;;;;5007913;28;20134;-77
2023/10/08 03:35:52;;;;;;;9.75;8.77;;;;;;;;;;5017407;28;20048;-76
2023/10/08 03:38:28;;;;;;;12.02;9.27;;;;;;;;;;5014540;28;20033;-76
2023/10/08 03:41:01;;;;;;;9.25;8.27;;;;;;;;;;5001091;28;20021;-77
2023/10/08 03:43:47;;;;;;;9.65;8.85;;;;;;;;;;5020100;28;20060;-76
2023/10/08 03:46:15;;;;;;;10.10;9.18;;;;;;;;;;5018214;28;21719;-75
2023/10/08 03:48:44;;;;;;;12.40;8.07;;;;;;;;;;5022593;28;20040;-77
2023/10/08 03:51:12;;;;;;;10.50;8.38;;;;;;;;;;5004886;28;20132;-76
2023/10/08 03:53:59;;;;;;;9.77;8.63;;;;;;;;;;5024238;28;20556;-73
2023/10/08 03:56:29;;;;;;;10.65;9.30;;;;;;;;;;5023303;28;20030;-75
2023/10/08 03:58:55;;;;;;;9.85;9.02;;;;;;;;;;5006260;28;20515;-77
2023/10/08 04:01:22;;;;;;;10.73;9.25;;;;;;;;;;5008331;28;20061;-76
2023/10/08 04:06:16;;;;;;;11.47;10.13;;;;;;;;;;5010627;28;20058;-75
2023/10/08 04:08:55;;;;;;;13.00;9.43;;;;;;;;;;5013026;28;20072;-79
2023/10/08 04:11:35;;;;;;;9.98;8.93;;;;;;;;;;5013743;28;20161;-76
2023/10/08 04:14:02;;;;;;;10.45;9.43;;;;;;;;;;5005473;28;21400;-76
2023/10/08 04:16:28;;;;;;;11.85;9.35;;;;;;;;;;5006348;28;20307;-75
2023/10/08 04:19:03;;;;;;;10.98;9.80;;;;;;;;;;5009781;28;20066;-76
2023/10/08 04:21:29;;;;;;;12.48;9.82;;;;;;;;;;5013182;28;20518;-76
2023/10/08 04:23:57;;;;;;;10.43;9.38;;;;;;;;;;5007668;28;20037;-75
2023/10/08 04:26:24;;;;;;;13.60;10.27;;;;;;;;;;5010558;28;20395;-77
2023/10/08 04:28:54;;;;;;;11.27;9.02;;;;;;;;;;5013786;28;20030;-77
2023/10/08 04:31:24;;;;;;;10.60;9.35;;;;;;;;;;5010272;28;20499;-75
2023/10/08 04:33:50;;;;;;;10.13;9.10;;;;;;;;;;5015517;28;20033;-75
2023/10/08 04:36:19;;;;;;;10.60;9.50;;;;;;;;;;5015719;28;20120;-76
2023/10/08 04:38:48;;;;;;;13.70;9.25;;;;;;;;;;5013624;28;20033;-76
2023/10/08 04:41:19;;;;;;;12.15;9.68;;;;;;;;;;5018373;28;20036;-76
2023/10/08 04:43:45;;;;;;;11.40;9.25;;;;;;;;;;5003478;28;20095;-77
2023/10/08 04:46:33;;;;;;;9.50;8.60;;;;;;;;;;5008777;28;20045;-76
2023/10/08 04:49:05;;;;;;;13.43;9.45;;;;;;;;;;5004026;28;20646;-76
2023/10/08 04:51:35;;;;;;;10.30;9.40;;;;;;;;;;5005578;28;20495;-76
2023/10/08 04:54:04;;;;;;;13.02;9.48;;;;;;;;;;5000529;28;20042;-76
2023/10/08 04:56:33;;;;;;;10.52;9.07;;;;;;;;;;5000829;28;20045;-78
2023/10/08 04:58:58;;;;;;;10.90;9.80;;;;;;;;;;5002834;28;20068;-76
2023/10/08 05:01:40;;;;;;;12.45;9.65;;;;;;;;;;5004608;28;20057;-77
2023/10/08 05:14:28;;;;;;;10.63;9.30;;;;;;;;;;5005025;28;20528;-75
2023/10/08 05:17:09;;;;;;;10.38;9.38;;;;;;;;;;5003588;28;20519;-75
2023/10/08 05:30:31;;;;;;;11.77;9.45;;;;;;;;;;5004217;28;20025;-76
2023/10/08 05:35:48;;;;;;;10.40;9.50;;;;;;;;;;4998494;28;20034;-76
2023/10/08 05:38:22;;;;;;;11.00;9.05;;;;;;;;;;5000715;28;20050;-75
2023/10/08 06:13:13;;;;;;;10.70;9.60;;;;;;;;;;4994022;28;20033;-74
2023/10/08 06:15:44;;;;;;;10.50;8.93;;;;;;;;;;5001912;28;20104;-76
2023/10/08 06:18:14;;;;;;;15.35;10.27;;;;;;;;;;5001514;28;20033;-78
2023/10/08 06:20:43;;;;;;;13.70;9.95;;;;;;;;;;5011145;28;20372;-78
2023/10/08 06:23:13;;;;;;;12.60;9.90;;;;;;;;;;4997048;28;20046;-76
2023/10/08 06:25:45;;;;;;;10.20;9.15;;;;;;;;;;5010595;28;20483;-76
2023/10/08 06:28:19;;;;;;;12.65;9.20;;;;;;;;;;5000046;28;20064;-77
2023/10/08 06:30:53;;;;;;;12.48;9.27;;;;;;;;;;5002592;28;20029;-77
2023/10/08 06:33:25;;;;;;;11.32;9.77;;;;;;;;;;4995758;28;20042;-77
2023/10/08 06:36:02;;;;;;;12.60;9.82;;;;;;;;;;5001448;28;20041;-76
2023/10/08 06:38:32;;;;;;;11.77;9.45;;;;;;;;;;5004049;28;20420;-76
2023/10/08 06:41:08;;;;;;;18.65;9.68;;;;;;;;;;5022815;28;20388;-76
2023/10/08 06:43:36;;;;;;;10.88;9.38;;;;;;;;;;5002450;28;20029;-76
2023/10/08 06:46:03;;;;;;;11.07;9.80;;;;;;;;;;4997310;28;20104;-76
2023/10/08 06:48:29;;;;;;;11.40;10.13;;;;;;;;;;5002639;28;20033;-77
2023/10/08 06:50:58;;;;;;;14.43;9.88;;;;;;;;;;4996616;28;20041;-77
2023/10/08 06:53:25;;;;;;;11.13;9.68;;;;;;;;;;4998318;28;20065;-76
2023/10/08 06:55:56;;;;;;;11.02;9.77;;;;;;;;;;5003364;28;20506;-77
2023/10/08 06:58:26;;;;;;;10.25;9.30;;;;;;;;;;5000110;28;20066;-76
2023/10/08 07:00:52;;;;;;;;;;;;;;;;;;4997964;28;20056;-77
2023/10/08 07:03:17;;;;;;;10.38;9.35;;;;;;;;;;4993240;28;19925;-77
2023/10/08 07:06:03;;;;;;;10.73;9.65;;;;;;;;;;5002774;28;20033;-77
2023/10/08 07:08:31;;;;;;;10.20;9.20;;;;;;;;;;4998217;28;20034;-75
2023/10/08 07:11:04;;;;;;;10.05;9.10;;;;;;;;;;5010373;28;20100;-76
2023/10/08 07:13:30;;;;;;;10.40;9.40;;;;;;;;;;5014792;28;20025;-76
2023/10/08 07:15:56;;;;;;;12.27;9.93;;;;;;;;;;5011039;28;20487;-77
2023/10/08 07:18:25;;;;;;;13.40;9.73;;;;;;;;;;5034728;28;20030;-76
2023/10/08 07:21:00;;;;;;;10.30;9.10;;;;;;;;;;5027310;28;20033;-76
2023/10/08 07:23:29;;;;;;;10.63;9.23;;;;;;;;;;5013282;28;20025;-76
2023/10/08 07:26:10;;;;;;;10.57;9.50;;;;;;;;;;5019628;28;20037;-77
2023/10/08 07:28:40;;;;;;;12.75;9.98;;;;;;;;;;5008410;28;20038;-76
2023/10/08 07:31:28;;;;;;;12.10;9.02;;;;;;;;;;5008552;28;20082;-78
2023/10/08 07:33:56;;;;;;;11.73;9.50;;;;;;;;;;5006653;28;20037;-77
2023/10/08 07:36:29;;;;;;;10.18;9.15;;;;;;;;;;5006491;28;20038;-76
2023/10/08 07:38:54;;;;;;;10.50;9.50;;;;;;;;;;5004390;28;20033;-76
2023/10/08 07:41:20;;;;;;;11.20;10.13;;;;;;;;;;5007783;28;20091;-78
2023/10/08 07:43:55;;;;;;;13.52;9.23;;;;;;;;;;4988122;28;20062;-77
2023/10/08 07:46:22;;;;;;;10.45;9.25;;;;;;;;;;5006175;28;20045;-77
2023/10/08 07:48:47;;;;;;;10.77;9.30;;;;;;;;;;5005468;28;20033;-77
2023/10/08 07:51:23;;;;;;;10.32;9.07;;;;;;;;;;5004270;28;20046;-76
2023/10/08 07:53:56;;;;;;;11.80;9.68;;;;;;;;;;5004876;28;20091;-76
2023/10/08 07:56:23;;;;;;;11.52;9.20;;;;;;;;;;4996681;28;20029;-76
2023/10/08 07:58:49;;;;;;;11.48;10.05;;;;;;;;;;5002767;28;20048;-75
2023/10/08 08:01:15;;;;;;;10.00;9.05;;;;;;;;;;5001474;28;20069;-76
2023/10/08 08:03:41;;;;;;;10.85;9.00;;;;;;;;;;5006591;28;20061;-80
2023/10/08 08:06:08;;;;;;;10.40;9.30;;;;;;;;;;5019417;28;20047;-78
2023/10/08 08:08:36;;;;;;;12.00;9.90;;;;;;;;;;5017961;28;20037;-79
2023/10/08 08:11:11;;;;;;;13.20;10.15;;;;;;;;;;5017226;28;20034;-76
2023/10/08 08:13:42;;;;;;;13.73;9.43;;;;;;;;;;5019236;28;20480;-80
2023/10/08 08:16:12;;;;;;;10.07;9.07;;;;;;;;;;5022112;28;20622;-77
2023/10/08 08:18:38;;;;;;;10.05;9.02;;;;;;;;;;5018592;28;20116;-78
2023/10/08 08:21:13;;;;;;;11.32;8.95;;;;;;;;;;5020028;28;20080;-76
2023/10/08 08:23:40;;;;;;;11.98;9.50;;;;;;;;;;5032427;28;20093;-77
2023/10/08 08:26:12;;;;;;;13.00;9.60;;;;;;;;;;5012876;28;20049;-78
2023/10/08 08:28:39;;;;;;;12.57;10.32;;;;;;;;;;5023425;28;20045;-76
2023/10/08 08:31:13;;;;;;;12.88;11.30;;;;;;;;;;5014017;28;20200;-76
2023/10/08 08:33:53;;;;;;;10.45;9.32;;;;;;;;;;5014030;28;20030;-75
2023/10/08 08:36:29;;;;;;;10.60;9.07;;;;;;;;;;5001639;28;20045;-76
2023/10/08 08:38:55;;;;;;;10.38;9.23;;;;;;;;;;4999548;28;20548;-76
2023/10/08 08:41:22;;;;;;;13.57;9.43;;;;;;;;;;5000165;28;20779;-77
2023/10/08 08:43:58;;;;;;;10.45;9.05;;;;;;;;;;5004030;28;20411;-76
2023/10/08 08:46:34;;;;;;;11.93;9.50;;;;;;;;;;4998557;28;20033;-75
2023/10/08 08:49:04;;;;;;;10.70;8.75;;;;;;;;;;5006753;28;20042;-79
2023/10/08 08:51:31;;;;;;;12.90;8.65;;;;;;;;;;5008483;28;20040;-76
2023/10/08 08:53:59;;;;;;;9.20;8.30;;;;;;;;;;5006225;28;20037;-76
2023/10/08 08:56:26;;;;;;;11.57;8.23;;;;;;;;;;5004834;28;20030;-75
2023/10/08 08:58:52;;;;;;;11.00;8.88;;;;;;;;;;5001372;28;20038;-78
2023/10/08 09:01:19;;;;;;;10.95;7.97;;;;;;;;;;5006978;28;20157;-78
2023/10/08 09:03:47;;;;;;;8.88;7.75;;;;;;;;;;5006579;28;20040;-75
2023/10/08 09:06:13;;;;;;;8.38;7.40;;;;;;;;;;5006249;28;20052;-76
2023/10/08 09:08:45;;;;;;;9.27;7.28;;;;;;;;;;5003405;28;20038;-74
2023/10/08 09:11:16;;;;;;;11.43;7.75;;;;;;;;;;5009426;28;20026;-76
2023/10/08 09:13:41;;;;;;;10.07;7.40;;;;;;;;;;5009825;28;20084;-76
2023/10/08 09:16:15;;;;;;;9.98;7.25;;;;;;;;;;5007326;28;20045;-76
2023/10/08 09:18:45;;;;;;;17.85;7.63;;;;;;;;;;5000044;28;20448;-77
2023/10/08 09:21:13;;;;;;;11.85;7.88;;;;;;;;;;5008776;28;20510;-77
2023/10/08 09:23:43;;;;;;;8.90;7.20;;;;;;;;;;5024714;28;20037;-75
2023/10/08 09:26:10;;;;;;;11.85;7.22;;;;;;;;;;5009469;28;20030;-77
2023/10/08 09:28:38;;;;;;;15.18;7.90;;;;;;;;;;5012173;28;20041;-76
2023/10/08 09:31:06;;;;;;;10.18;7.55;;;;;;;;;;5000431;28;20030;-76
2023/10/08 09:33:32;;;;;;;8.10;7.30;;;;;;;;;;4999081;28;20037;-76
2023/10/08 09:36:06;;;;;;;11.20;7.60;;;;;;;;;;5006627;28;20407;-76
2023/10/08 09:38:36;;;;;;;8.73;7.10;;;;;;;;;;4998725;28;20069;-75
2023/10/08 09:41:03;;;;;;;10.77;7.40;;;;;;;;;;5003280;28;20412;-76
2023/10/08 09:43:29;;;;;;;17.38;8.57;;;;;;;;;;5009927;28;20037;-79
2023/10/08 09:46:08;;;;;;;12.70;7.55;;;;;;;;;;5008601;28;20034;-78
2023/10/08 09:48:37;;;;;;;10.90;7.55;;;;;;;;;;5010092;28;20086;-77
2023/10/08 09:51:06;;;;;;;9.93;8.45;;;;;;;;;;5001987;28;20021;-77
2023/10/08 09:53:51;;;;;;;;;;;;;;;;;;5011870;28;20041;-77
2023/10/08 09:56:19;;;;;;;10.32;8.35;;;;;;;;;;5001158;28;19917;-76
2023/10/08 09:58:48;;;;;;;8.77;7.90;;;;;;;;;;5000333;28;20914;-78
2023/10/08 10:01:17;;;;;;;13.10;8.20;;;;;;;;;;5000910;28;20098;-75
2023/10/08 10:03:44;;;;;;;9.23;8.10;;;;;;;;;;5003121;28;20040;-75
2023/10/08 10:06:15;;;;;;;9.95;8.25;;;;;;;;;;5004215;28;20042;-76
2023/10/08 10:08:45;;;;;;;8.98;7.93;;;;;;;;;;5000570;28;20076;-75
2023/10/08 10:11:11;;;;;;;13.40;8.10;;;;;;;;;;5004943;28;20034;-78
2023/10/08 10:13:49;;;;;;;10.75;7.88;;;;;;;;;;5025369;28;20802;-77
2023/10/08 10:16:19;;;;;;;11.80;8.02;;;;;;;;;;5006244;28;20044;-76
2023/10/08 10:18:48;;;;;;;10.13;7.88;;;;;;;;;;5004757;28;20064;-76
2023/10/08 10:21:14;;;;;;;10.48;8.57;;;;;;;;;;4997248;28;20113;-76
2023/10/08 10:23:42;;;;;;;9.57;8.00;;;;;;;;;;4997219;28;20427;-77
2023/10/08 10:26:30;;;;;;;10.35;7.95;;;;;;;;;;5002655;28;20527;-78
2023/10/08 10:29:14;;;;;;;10.25;8.82;;;;;;;;;;5008789;28;20515;-78
2023/10/08 10:31:44;;;;;;;11.68;8.40;;;;;;;;;;5001874;28;20498;-79
2023/10/08 10:34:12;;;;;;;10.23;8.43;;;;;;;;;;5001060;28;20053;-79
2023/10/08 10:36:39;;;;;;;10.98;8.13;;;;;;;;;;5008737;28;20724;-76
2023/10/08 10:39:16;;;;;;;9.05;8.15;;;;;;;;;;5008350;28;20042;-77
2023/10/08 10:41:47;;;;;;;14.93;8.50;;;;;;;;;;5005577;28;20095;-76
2023/10/08 10:44:13;;;;;;;10.00;8.68;;;;;;;;;;5000082;28;20049;-76
2023/10/08 10:46:43;;;;;;;8.70;7.90;;;;;;;;;;5004157;28;20041;-78
2023/10/08 10:49:18;;;;;;;10.70;8.60;;;;;;;;;;5016316;28;20034;-78
2023/10/08 10:51:46;;;;;;;10.48;8.50;;;;;;;;;;5000562;28;20056;-76
2023/10/08 10:54:19;;;;;;;10.30;8.45;;;;;;;;;;4994492;28;20079;-76
2023/10/08 10:56:47;;;;;;;10.27;8.50;;;;;;;;;;4998500;28;20041;-78
2023/10/08 10:59:18;;;;;;;9.07;8.18;;;;;;;;;;5002360;28;20046;-76
2023/10/08 11:01:52;;;;;;;11.50;7.80;;;;;;;;;;5016397;28;20061;-76
2023/10/08 11:04:19;;;;;;;11.13;8.60;;;;;;;;;;4994742;28;20454;-77
2023/10/08 11:06:47;;;;;;;9.70;8.75;;;;;;;;;;5005747;28;20653;-77
2023/10/08 11:09:27;;;;;;;11.55;8.85;;;;;;;;;;5001525;28;20041;-76
2023/10/08 11:11:54;;;;;;;9.98;8.70;;;;;;;;;;5002945;28;20041;-78
2023/10/08 11:14:21;;;;;;;13.50;8.38;;;;;;;;;;5000552;28;20442;-76
2023/10/08 11:16:50;;;;;;;9.75;8.73;;;;;;;;;;4997411;28;20403;-76
2023/10/08 11:19:19;;;;;;;9.68;8.70;;;;;;;;;;4997464;28;20041;-77
2023/10/08 11:21:51;;;;;;;9.90;8.95;;;;;;;;;;5014662;28;20434;-79
2023/10/08 11:24:33;;;;;;;10.02;8.43;;;;;;;;;;4999289;28;20046;-77
2023/10/08 11:27:17;;;;;;;12.07;9.00;;;;;;;;;;5002029;28;20132;-77
2023/10/08 11:29:56;;;;;;;9.43;8.23;;;;;;;;;;4996418;28;20045;-77
2023/10/08 11:32:25;;;;;;;14.93;8.60;;;;;;;;;;5003724;28;20034;-78
2023/10/08 11:34:55;;;;;;;;;;;;;;;;;;5000257;28;20418;-76
2023/10/08 11:37:33;;;;;;;10.20;8.82;;;;;;;;;;4995792;28;19972;-79
2023/10/08 11:40:07;;;;;;;13.82;9.10;;;;;;;;;;4999232;28;20442;-78
2023/10/08 11:45:08;;;;;;;11.85;8.88;;;;;;;;;;4997558;28;20555;-76
2023/10/08 11:47:35;;;;;;;14.35;9.88;;;;;;;;;;4992263;28;20120;-76
2023/10/08 11:50:11;;;;;;;10.43;9.18;;;;;;;;;;4995855;28;20096;-74
2023/10/08 11:52:41;;;;;;;11.23;9.32;;;;;;;;;;5002646;28;20032;-76
2023/10/08 11:55:09;;;;;;;11.15;9.07;;;;;;;;;;4995997;28;20613;-77
2023/10/08 11:57:35;;;;;;;14.40;9.88;;;;;;;;;;5003350;28;20037;-77
2023/10/08 12:00:18;;;;;;;13.35;9.68;;;;;;;;;;5000426;28;20037;-77
2023/10/08 12:02:48;;;;;;;14.65;9.13;;;;;;;;;;5004613;28;20021;-76
2023/10/08 12:05:20;;;;;;;13.85;9.55;;;;;;;;;;5000197;28;20121;-78
2023/10/08 12:07:51;;;;;;;11.57;10.02;;;;;;;;;;5003318;28;20037;-77
2023/10/08 12:10:22;;;;;;;9.95;8.57;;;;;;;;;;5005071;28;20040;-76
2023/10/08 12:12:59;;;;;;;10.32;9.27;;;;;;;;;;5007460;28;20034;-77
2023/10/08 12:15:34;;;;;;;9.80;8.77;;;;;;;;;;5006543;28;20030;-76
2023/10/08 12:18:13;;;;;;;12.75;9.32;;;;;;;;;;5001736;28;20658;-77
2023/10/08 12:20:38;;;;;;;9.85;8.95;;;;;;;;;;5010501;28;20547;-75
2023/10/08 12:23:05;;;;;;;12.45;9.02;;;;;;;;;;5000570;28;20200;-77
2023/10/08 12:25:34;;;;;;;10.93;8.90;;;;;;;;;;5001067;28;20423;-77
2023/10/08 12:28:03;;;;;;;10.43;8.80;;;;;;;;;;5006242;28;20041;-75
2023/10/08 12:30:41;;;;;;;10.98;9.35;;;;;;;;;;5005396;28;20044;-76
2023/10/08 12:33:07;;;;;;;10.77;9.13;;;;;;;;;;4998869;28;20498;-77
2023/10/08 12:35:33;;;;;;;10.55;9.45;;;;;;;;;;5007898;28;20724;-76
2023/10/08 12:37:58;;;;;;;11.10;10.00;;;;;;;;;;5005492;28;20707;-78
2023/10/08 12:40:24;;;;;;;11.35;9.77;;;;;;;;;;5005018;28;20026;-78
2023/10/08 12:42:52;;;;;;;11.90;9.82;;;;;;;;;;5007278;28;20058;-78
2023/10/08 12:45:21;;;;;;;16.95;9.90;;;;;;;;;;5009939;28;20120;-78
2023/10/08 12:47:49;;;;;;;;;;;;;;;;;;5010513;28;20037;-79
2023/10/08 12:50:16;;;;;;;15.10;10.38;;;;;;;;;;5000490;28;20492;-78
2023/10/08 12:52:52;;;;;;;11.18;9.98;;;;;;;;;;5004277;28;20626;-77
2023/10/08 12:55:23;;;;;;;14.93;10.10;;;;;;;;;;5007338;28;20042;-77
2023/10/08 12:57:55;;;;;;;15.23;10.60;;;;;;;;;;5006915;28;20083;-77
2023/10/08 13:00:25;;;;;;;10.93;9.82;;;;;;;;;;5004071;28;20403;-79
2023/10/08 13:02:53;;;;;;;11.38;10.10;;;;;;;;;;5009941;28;20112;-78
2023/10/08 13:05:28;;;;;;;11.18;9.98;;;;;;;;;;5000215;28;20026;-79
2023/10/08 13:07:55;;;;;;;15.50;9.82;;;;;;;;;;5002655;28;20059;-79
2023/10/08 13:10:22;;;;;;;11.77;9.85;;;;;;;;;;5008839;28;20073;-76
2023/10/08 13:12:48;;;;;;;11.57;9.90;;;;;;;;;;5005471;28;20100;-77
2023/10/08 13:15:14;;;;;;;16.35;10.65;;;;;;;;;;5000898;28;20491;-76
2023/10/08 13:17:42;;;;;;;11.27;10.05;;;;;;;;;;5004348;28;20064;-75
2023/10/08 13:20:11;;;;;;;15.65;10.52;;;;;;;;;;5005490;28;20042;-76
2023/10/08 13:22:39;;;;;;;11.23;9.88;;;;;;;;;;5008113;28;20033;-76
2023/10/08 13:25:06;;;;;;;11.00;9.80;;;;;;;;;;5003188;28;20069;-76
2023/10/08 13:27:31;;;;;;;11.05;9.65;;;;;;;;;;5006028;28;20042;-76
2023/10/08 13:29:58;;;;;;;20.48;10.55;;;;;;;;;;5000593;28;20088;-76
2023/10/08 13:32:24;;;;;;;14.13;9.85;;;;;;;;;;5014118;28;20046;-76
2023/10/08 13:34:50;;;;;;;14.10;10.07;;;;;;;;;;5016765;28;20072;-76
2023/10/08 13:37:16;;;;;;;15.10;10.27;;;;;;;;;;4993693;28;20072;-76
2023/10/08 13:39:42;;;;;;;14.45;10.25;;;;;;;;;;4994384;28;20130;-75
2023/10/08 13:42:07;;;;;;;14.05;10.45;;;;;;;;;;5004936;28;20038;-77
2023/10/08 13:44:35;;;;;;;13.10;10.30;;;;;;;;;;5000513;28;20065;-76
2023/10/08 13:47:05;;;;;;;13.38;10.35;;;;;;;;;;5001828;28;20052;-74
2023/10/08 13:49:32;;;;;;;11.90;10.45;;;;;;;;;;5010921;28;20042;-76
2023/10/08 13:51:58;;;;;;;14.00;10.55;;;;;;;;;;4996404;28;20074;-76
2023/10/08 13:54:28;;;;;;;11.32;10.23;;;;;;;;;;4999545;28;20752;-76
2023/10/08 13:56:56;;;;;;;14.10;10.02;;;;;;;;;;5000358;28;20721;-75
2023/10/08 13:59:24;;;;;;;12.20;10.57;;;;;;;;;;4997314;28;20037;-76
2023/10/08 14:01:54;;;;;;;16.08;10.57;;;;;;;;;;4996820;28;20044;-76
2023/10/08 14:04:23;;;;;;;12.00;10.10;;;;;;;;;;5001342;28;20044;-76
2023/10/08 14:06:51;;;;;;;15.55;10.27;;;;;;;;;;4993197;28;20045;-75
2023/10/08 14:09:22;;;;;;;12.93;10.35;;;;;;;;;;4994925;28;20042;-77
2023/10/08 14:11:52;;;;;;;13.25;10.07;;;;;;;;;;5001032;28;20034;-76
2023/10/08 14:14:19;;;;;;;11.55;9.68;;;;;;;;;;5001586;28;20057;-76
2023/10/08 14:16:51;;;;;;;13.45;10.43;;;;;;;;;;4998172;28;20038;-75
2023/10/08 14:19:22;;;;;;;11.50;9.50;;;;;;;;;;4996640;28;20507;-76
2023/10/08 14:22:00;;;;;;;13.73;9.95;;;;;;;;;;5001460;28;20052;-76
2023/10/08 14:24:29;;;;;;;14.45;9.57;;;;;;;;;;4997421;28;20125;-77
2023/10/08 14:26:57;;;;;;;14.65;9.90;;;;;;;;;;4998174;28;20041;-75
2023/10/08 14:29:26;;;;;;;12.88;9.98;;;;;;;;;;5003338;28;20038;-76
2023/10/08 14:31:56;;;;;;;13.13;10.52;;;;;;;;;;5008315;28;20450;-75
2023/10/08 14:42:56;;;;;;;13.50;9.63;;;;;;;;;;5003763;28;20141;-76
2023/10/08 14:45:25;;;;;;;12.80;9.93;;;;;;;;;;4992738;28;20125;-78
2023/10/08 14:47:53;;;;;;;11.15;9.95;;;;;;;;;;4999391;28;20163;-77
2023/10/08 14:50:19;;;;;;;14.23;9.88;;;;;;;;;;5007111;28;20119;-76
2023/10/08 14:52:46;;;;;;;14.10;9.18;;;;;;;;;;4995836;28;21275;-76
2023/10/08 14:55:12;;;;;;;14.45;9.73;;;;;;;;;;4998180;28;20046;-77
2023/10/08 14:57:39;;;;;;;12.45;9.35;;;;;;;;;;4999918;28;20042;-76
2023/10/08 15:00:06;;;;;;;11.60;9.38;;;;;;;;;;5000637;28;20200;-77
2023/10/08 15:02:33;;;;;;;12.20;9.15;;;;;;;;;;4998042;28;20053;-77
2023/10/08 15:05:00;;;;;;;12.23;9.88;;;;;;;;;;5006323;28;20044;-77
2023/10/08 15:07:27;;;;;;;10.13;9.02;;;;;;;;;;5002336;28;20037;-77
2023/10/08 15:09:57;;;;;;;10.88;9.10;;;;;;;;;;4997641;28;20585;-77
2023/10/08 15:12:34;;;;;;;12.65;9.35;;;;;;;;;;4994761;28;20117;-77
2023/10/08 15:15:00;;;;;;;12.10;9.35;;;;;;;;;;4996044;28;20050;-77
2023/10/08 15:17:26;;;;;;;13.68;8.98;;;;;;;;;;4994369;28;20033;-76
2023/10/08 15:19:51;;;;;;;12.23;10.07;;;;;;;;;;4995754;28;20041;-78
2023/10/08 15:22:17;;;;;;;13.32;9.32;;;;;;;;;;4996807;28;20035;-77
2023/10/08 15:24:43;;;;;;;10.23;9.30;;;;;;;;;;5010381;28;20610;-76
2023/10/08 15:27:10;;;;;;;10.77;9.70;;;;;;;;;;4990218;28;20058;-77
2023/10/08 15:29:37;;;;;;;15.20;9.48;;;;;;;;;;4995403;28;20045;-77
2023/10/08 15:32:02;;;;;;;10.30;9.23;;;;;;;;;;4998530;28;20030;-77
2023/10/08 15:34:28;;;;;;;15.23;9.75;;;;;;;;;;4999505;28;20042;-77
2023/10/08 15:36:54;;;;;;;15.10;9.68;;;;;;;;;;4998368;28;20655;-78
2023/10/08 15:39:22;;;;;;;15.40;9.63;;;;;;;;;;5003249;28;20716;-76
2023/10/08 15:41:49;;;;;;;11.88;9.82;;;;;;;;;;4994258;28;20048;-77
2023/10/08 15:44:22;;;;;;;12.00;9.00;;;;;;;;;;5005117;28;20038;-77
2023/10/08 15:46:49;;;;;;;12.63;8.80;;;;;;;;;;4995322;28;20034;-77
2023/10/08 15:49:15;;;;;;;12.80;8.80;;;;;;;;;;4999545;28;20037;-77
2023/10/08 15:51:40;;;;;;;11.93;9.50;;;;;;;;;;4994748;28;20128;-77
2023/10/08 15:54:06;;;;;;;10.73;9.10;;;;;;;;;;5006352;28;20049;-76
2023/10/08 15:56:33;;;;;;;11.27;9.35;;;;;;;;;;5003638;28;20034;-76
2023/10/08 15:58:58;;;;;;;9.95;9.00;;;;;;;;;;5000734;28;20069;-76
2023/10/08 16:01:27;;;;;;;12.48;9.38;;;;;;;;;;5000878;28;20502;-77
2023/10/08 16:03:52;;;;;;;14.13;9.48;;;;;;;;;;5005995;28;20036;-75